Terminal Aerodrome Forecast
Issued by NWS Cleveland, OH

Home | Current Version | Previous Version | Text Only | Print | Product List | Glossary Off
Versions: 1 2 3 4 5 6 7 8 9 10 11 12 13 14 15 16 17 18 19 20 21 22 23 24 25 26 27

972
FTUS41 KCLE 121737
TAFCLE
TAF
KCLE 121737Z 1218/1324 23015G25KT P6SM OVC060
      TEMPO 1220/1221 1 1/2SM -SHSN OVC025
     FM122100 27020G30KT 1 1/2SM -SHSN OVC025
      TEMPO 1221/1224 1/2SM SN BLSN OVC012
     FM130300 30015G25KT 5SM -SHSN OVC025
     FM131300 30015G25KT 2SM -SHSN OVC025=

USA.gov is the U.S. government's official web portal to all federal, state and local government web resources and services.